Port Canaveral, Florida
Current Conditions -  °F | °C
As of 5:58 PM on Thursday 27 Nov 2014 (Local Time) from KXMR Reporting Station
Clear Clear  
Wind Chill: 59°   Ceiling: Unl
Heat Index: 59°   Visibility: 10mi
Dew Point: 48°   Wind: 6mph
Humidity: 67%   Direction: 350°N
Pressure: 30.18"   Gusts: NA
Location:  28.3971°N, 80.6086°W
Report Text: KXMR 272258Z AUTO 35005KT 10SM CLR 15/09 A3018 RMK AO2 SLP223 T01510090
Loading
Personal Weather Stations






























Interactive Weather Map New forecast layout! Learn more

10-Day Weather Forecast

Advertisements
Track Severe Weather on mobile